• Join FlightAware (Why Join?)
  • Login
  • US Flag 
06:20AM EDT


 

Airport Tracker/Info


-or-


 

Live Flight TrackerFlight Track Log ✈ KAP550 ✈ 07-May-2013 ✈ KMSS - KALB

Flight Track Log - Related Links

Times and Time Zones

All times are in EDT time to prevent confusion due to time zone crossing. See the KAP550 flight status page for this flight to view local times or setup timezone preferences in your user account.

Time Position Orientation Groundspeed Altitude Reporting Facility
EDT Latitude Longitude Course Direction KTS MPH feet Rate Location/Type
05:20PM 43.7758 -74.2775 160° South 157 181 9,500  Level Boston Center
05:21PM 43.7261 -74.2531 160° South 171 197 9,500  Level Boston Center
05:22PM 43.6764 -74.2314 163° South 184 212 9,500  Level Boston Center
05:23PM 43.6289 -74.2128 164° South 184 212 9,500  Level Boston Center
05:24PM 43.5956 -74.1975 162° South 187 215 9,500  Level Boston Center
05:24PM 43.5792 -74.1856 152° Southeast 184 212 9,500  Level Boston Center
05:25PM 44.7160 -74.7330 160° South  Level FlightAware Approximate
05:25PM 43.5294 -74.1639 162° South 184 212 9,500  Level Boston Center
05:26PM 43.4881 -74.1486 165° South 188 216 9,500 -300 Level Boston Center
05:27PM 43.4364 -74.1214 159° South 197 227 9,000 -600 Descending Boston Center
05:28PM 43.3825 -74.0969 162° South 203 234 8,400 -660 Descending Boston Center
05:29PM 43.3347 -74.0758 162° South 204 235 7,800 -660 Descending Boston Center
05:30PM 43.2831 -74.0514 161° South 197 227 7,200 -600 Descending Boston Center
05:31PM 43.2333 -74.0303 163° South 188 216 6,700 -540 Descending Boston Center
05:32PM 43.1836 -74.0061 160° South 185 213 6,200 -480 Descending Boston Center
05:33PM 43.1339 -73.9822 161° South 190 219 5,800 -480 Descending Boston Center
05:34PM 43.0781 -73.9553 161° South 190 219 5,300 -540 Descending Boston Center
05:35PM 43.0222 -73.9253 159° South 187 215 4,700 -540 Descending Boston Center
05:36PM 42.9831 -73.8989 154° Southeast 188 216 4,300 -600 Descending Boston Center
05:37PM 42.9417 -73.8639 148° Southeast 185 213 3,700 -540 Descending Boston Center
05:38PM 42.8964 -73.8261 149° Southeast 183 211 3,300 -600 Descending Boston Center
05:39PM 42.8506 -73.8108 166° South 168 193 2,600 -960 Descending Boston Center
05:40PM 42.8089 -73.8100 179° South 146 168 1,400 -960 Descending Boston Center
05:41PM 42.7714 -73.8092 179° South 130 150 700 -720 Descending Boston Center
05:43PM 42.7491 -73.8020 170° South  Level Estimated
05:50PM 42.7491 -73.8020 170° South  Level Estimated
05:51PM 42.7491 -73.8020 170° South  Level Estimated
05:52PM 42.7491 -73.8020 170° South  Level Estimated